sensor_id;sensor_type;location;lat;lon;timestamp;P1;durP1;ratioP1;P2;durP2;ratioP2
16466;SDS011;8344;47.560;9.710;2023-12-04T00:00:23;1.30;;;1.30;;
16466;SDS011;8344;47.560;9.710;2023-12-04T00:02:48;1.30;;;1.30;;
16466;SDS011;8344;47.560;9.710;2023-12-04T00:05:14;1.30;;;1.30;;
16466;SDS011;8344;47.560;9.710;2023-12-04T00:07:39;1.20;;;1.20;;
16466;SDS011;8344;47.560;9.710;2023-12-04T00:10:04;1.30;;;1.30;;
16466;SDS011;8344;47.560;9.710;2023-12-04T00:12:30;1.40;;;1.40;;
16466;SDS011;8344;47.560;9.710;2023-12-04T00:14:55;1.40;;;1.40;;
16466;SDS011;8344;47.560;9.710;2023-12-04T00:17:21;1.33;;;1.33;;
16466;SDS011;8344;47.560;9.710;2023-12-04T00:19:47;1.40;;;1.40;;
16466;SDS011;8344;47.560;9.710;2023-12-04T00:22:12;1.57;;;1.57;;
16466;SDS011;8344;47.560;9.710;2023-12-04T00:24:37;1.20;;;1.20;;
16466;SDS011;8344;47.560;9.710;2023-12-04T00:27:03;1.20;;;1.20;;
16466;SDS011;8344;47.560;9.710;2023-12-04T00:29:28;1.13;;;1.13;;
16466;SDS011;8344;47.560;9.710;2023-12-04T00:31:53;1.00;;;1.00;;
16466;SDS011;8344;47.560;9.710;2023-12-04T00:34:19;1.00;;;1.00;;
16466;SDS011;8344;47.560;9.710;2023-12-04T00:36:44;1.30;;;1.30;;
16466;SDS011;8344;47.560;9.710;2023-12-04T00:39:09;1.00;;;1.00;;
16466;SDS011;8344;47.560;9.710;2023-12-04T00:41:35;1.53;;;1.53;;
16466;SDS011;8344;47.560;9.710;2023-12-04T00:44:00;1.17;;;1.17;;
16466;SDS011;8344;47.560;9.710;2023-12-04T00:46:25;1.30;;;1.30;;
16466;SDS011;8344;47.560;9.710;2023-12-04T00:48:51;1.20;;;1.20;;
16466;SDS011;8344;47.560;9.710;2023-12-04T00:51:16;1.00;;;1.00;;
16466;SDS011;8344;47.560;9.710;2023-12-04T00:53:41;1.30;;;1.30;;
16466;SDS011;8344;47.560;9.710;2023-12-04T00:56:06;1.50;;;1.50;;
16466;SDS011;8344;47.560;9.710;2023-12-04T00:58:32;1.47;;;1.47;;
16466;SDS011;8344;47.560;9.710;2023-12-04T01:00:58;1.27;;;1.27;;
16466;SDS011;8344;47.560;9.710;2023-12-04T01:03:23;1.40;;;1.40;;
16466;SDS011;8344;47.560;9.710;2023-12-04T01:05:51;1.40;;;1.40;;
16466;SDS011;8344;47.560;9.710;2023-12-04T01:08:16;1.03;;;1.03;;
16466;SDS011;8344;47.560;9.710;2023-12-04T01:10:41;1.30;;;1.30;;
16466;SDS011;8344;47.560;9.710;2023-12-04T01:13:07;1.40;;;1.40;;
16466;SDS011;8344;47.560;9.710;2023-12-04T01:15:32;1.40;;;1.40;;
16466;SDS011;8344;47.560;9.710;2023-12-04T01:17:57;1.40;;;1.40;;
16466;SDS011;8344;47.560;9.710;2023-12-04T01:20:25;1.20;;;1.20;;
16466;SDS011;8344;47.560;9.710;2023-12-04T01:22:50;1.10;;;1.10;;
16466;SDS011;8344;47.560;9.710;2023-12-04T01:25:16;1.30;;;1.30;;
16466;SDS011;8344;47.560;9.710;2023-12-04T01:27:41;1.13;;;1.13;;
16466;SDS011;8344;47.560;9.710;2023-12-04T01:30:06;0.90;;;0.90;;
16466;SDS011;8344;47.560;9.710;2023-12-04T01:32:33;1.20;;;1.20;;
16466;SDS011;8344;47.560;9.710;2023-12-04T01:34:59;1.53;;;1.53;;
16466;SDS011;8344;47.560;9.710;2023-12-04T01:37:24;1.10;;;1.10;;
16466;SDS011;8344;47.560;9.710;2023-12-04T01:39:49;0.97;;;0.97;;
16466;SDS011;8344;47.560;9.710;2023-12-04T01:42:15;1.40;;;1.40;;
16466;SDS011;8344;47.560;9.710;2023-12-04T01:44:40;1.50;;;1.50;;
16466;SDS011;8344;47.560;9.710;2023-12-04T01:47:05;1.20;;;1.20;;
16466;SDS011;8344;47.560;9.710;2023-12-04T01:49:32;1.40;;;1.40;;
16466;SDS011;8344;47.560;9.710;2023-12-04T01:51:57;1.03;;;1.03;;
16466;SDS011;8344;47.560;9.710;2023-12-04T01:54:22;1.30;;;1.30;;
16466;SDS011;8344;47.560;9.710;2023-12-04T01:56:48;1.27;;;1.27;;
16466;SDS011;8344;47.560;9.710;2023-12-04T01:59:14;1.20;;;1.20;;
16466;SDS011;8344;47.560;9.710;2023-12-04T02:01:39;1.37;;;1.37;;
16466;SDS011;8344;47.560;9.710;2023-12-04T02:04:05;1.27;;;1.27;;
16466;SDS011;8344;47.560;9.710;2023-12-04T02:06:31;1.40;;;1.40;;
16466;SDS011;8344;47.560;9.710;2023-12-04T02:08:56;1.17;;;1.17;;
16466;SDS011;8344;47.560;9.710;2023-12-04T02:11:21;1.20;;;1.20;;
16466;SDS011;8344;47.560;9.710;2023-12-04T02:13:46;1.40;;;1.40;;
16466;SDS011;8344;47.560;9.710;2023-12-04T02:16:12;1.33;;;1.33;;
16466;SDS011;8344;47.560;9.710;2023-12-04T02:18:38;1.37;;;1.37;;
16466;SDS011;8344;47.560;9.710;2023-12-04T02:21:04;1.10;;;1.10;;
16466;SDS011;8344;47.560;9.710;2023-12-04T02:23:30;1.20;;;1.20;;
16466;SDS011;8344;47.560;9.710;2023-12-04T02:25:59;1.20;;;1.20;;
16466;SDS011;8344;47.560;9.710;2023-12-04T02:28:27;1.50;;;1.50;;
16466;SDS011;8344;47.560;9.710;2023-12-04T02:30:56;1.30;;;1.30;;
16466;SDS011;8344;47.560;9.710;2023-12-04T02:33:22;1.40;;;1.40;;
16466;SDS011;8344;47.560;9.710;2023-12-04T02:35:48;1.47;;;1.47;;
16466;SDS011;8344;47.560;9.710;2023-12-04T02:38:15;1.20;;;1.20;;
16466;SDS011;8344;47.560;9.710;2023-12-04T02:40:40;1.40;;;1.40;;
16466;SDS011;8344;47.560;9.710;2023-12-04T02:43:06;1.40;;;1.40;;
16466;SDS011;8344;47.560;9.710;2023-12-04T02:45:31;1.30;;;1.30;;
16466;SDS011;8344;47.560;9.710;2023-12-04T02:47:56;1.30;;;1.30;;
16466;SDS011;8344;47.560;9.710;2023-12-04T02:50:22;1.47;;;1.47;;
16466;SDS011;8344;47.560;9.710;2023-12-04T02:52:47;1.30;;;1.30;;
16466;SDS011;8344;47.560;9.710;2023-12-04T02:55:12;1.50;;;1.50;;
16466;SDS011;8344;47.560;9.710;2023-12-04T02:57:37;1.60;;;1.60;;
16466;SDS011;8344;47.560;9.710;2023-12-04T03:00:03;1.20;;;1.20;;
16466;SDS011;8344;47.560;9.710;2023-12-04T03:02:29;1.40;;;1.40;;
16466;SDS011;8344;47.560;9.710;2023-12-04T03:04:54;1.27;;;1.27;;
16466;SDS011;8344;47.560;9.710;2023-12-04T03:07:20;1.50;;;1.50;;
16466;SDS011;8344;47.560;9.710;2023-12-04T03:09:46;1.20;;;1.20;;
16466;SDS011;8344;47.560;9.710;2023-12-04T03:12:11;1.30;;;1.30;;
16466;SDS011;8344;47.560;9.710;2023-12-04T03:14:37;1.40;;;1.40;;
16466;SDS011;8344;47.560;9.710;2023-12-04T03:17:02;1.50;;;1.50;;
16466;SDS011;8344;47.560;9.710;2023-12-04T03:19:27;1.30;;;1.30;;
16466;SDS011;8344;47.560;9.710;2023-12-04T03:21:52;1.30;;;1.30;;
16466;SDS011;8344;47.560;9.710;2023-12-04T03:24:18;1.30;;;1.30;;
16466;SDS011;8344;47.560;9.710;2023-12-04T03:26:43;1.37;;;1.37;;
16466;SDS011;8344;47.560;9.710;2023-12-04T03:29:08;1.20;;;1.20;;
16466;SDS011;8344;47.560;9.710;2023-12-04T03:31:34;1.30;;;1.30;;
16466;SDS011;8344;47.560;9.710;2023-12-04T03:34:01;1.40;;;1.40;;
16466;SDS011;8344;47.560;9.710;2023-12-04T03:36:26;1.27;;;1.27;;
16466;SDS011;8344;47.560;9.710;2023-12-04T03:38:52;1.40;;;1.40;;
16466;SDS011;8344;47.560;9.710;2023-12-04T03:41:17;1.20;;;1.20;;
16466;SDS011;8344;47.560;9.710;2023-12-04T03:43:42;1.50;;;1.50;;
16466;SDS011;8344;47.560;9.710;2023-12-04T03:46:08;1.10;;;1.10;;
16466;SDS011;8344;47.560;9.710;2023-12-04T03:48:33;1.10;;;1.10;;
16466;SDS011;8344;47.560;9.710;2023-12-04T03:50:58;1.10;;;1.10;;
16466;SDS011;8344;47.560;9.710;2023-12-04T03:53:24;1.20;;;1.20;;
16466;SDS011;8344;47.560;9.710;2023-12-04T03:55:50;1.30;;;1.30;;
16466;SDS011;8344;47.560;9.710;2023-12-04T03:58:15;1.47;;;1.47;;
16466;SDS011;8344;47.560;9.710;2023-12-04T04:00:40;1.30;;;1.30;;
16466;SDS011;8344;47.560;9.710;2023-12-04T04:03:06;1.10;;;1.10;;
16466;SDS011;8344;47.560;9.710;2023-12-04T04:05:31;1.20;;;1.20;;
16466;SDS011;8344;47.560;9.710;2023-12-04T04:07:59;1.37;;;1.37;;
16466;SDS011;8344;47.560;9.710;2023-12-04T04:10:24;1.20;;;1.20;;
16466;SDS011;8344;47.560;9.710;2023-12-04T04:12:50;1.20;;;1.20;;
16466;SDS011;8344;47.560;9.710;2023-12-04T04:15:15;0.90;;;0.90;;
16466;SDS011;8344;47.560;9.710;2023-12-04T04:17:40;1.20;;;1.20;;
16466;SDS011;8344;47.560;9.710;2023-12-04T04:20:06;0.90;;;0.90;;
16466;SDS011;8344;47.560;9.710;2023-12-04T04:22:32;0.90;;;0.90;;
16466;SDS011;8344;47.560;9.710;2023-12-04T04:25:02;1.00;;;1.00;;
16466;SDS011;8344;47.560;9.710;2023-12-04T04:27:28;0.90;;;0.90;;
16466;SDS011;8344;47.560;9.710;2023-12-04T04:29:53;1.13;;;1.13;;
16466;SDS011;8344;47.560;9.710;2023-12-04T04:32:19;1.00;;;1.00;;
16466;SDS011;8344;47.560;9.710;2023-12-04T04:34:44;1.23;;;1.23;;
16466;SDS011;8344;47.560;9.710;2023-12-04T04:37:09;0.97;;;0.97;;
16466;SDS011;8344;47.560;9.710;2023-12-04T04:39:34;1.50;;;1.50;;
16466;SDS011;8344;47.560;9.710;2023-12-04T04:42:00;1.30;;;1.30;;
16466;SDS011;8344;47.560;9.710;2023-12-04T04:44:25;1.43;;;1.43;;
16466;SDS011;8344;47.560;9.710;2023-12-04T04:46:50;1.40;;;1.40;;
16466;SDS011;8344;47.560;9.710;2023-12-04T04:49:16;1.33;;;1.33;;
16466;SDS011;8344;47.560;9.710;2023-12-04T04:51:41;1.20;;;1.20;;
16466;SDS011;8344;47.560;9.710;2023-12-04T04:54:06;1.20;;;1.20;;
16466;SDS011;8344;47.560;9.710;2023-12-04T04:56:32;1.30;;;1.30;;
16466;SDS011;8344;47.560;9.710;2023-12-04T04:58:57;1.00;;;1.00;;
16466;SDS011;8344;47.560;9.710;2023-12-04T05:01:22;1.40;;;1.40;;
16466;SDS011;8344;47.560;9.710;2023-12-04T05:03:48;1.00;;;1.00;;
16466;SDS011;8344;47.560;9.710;2023-12-04T05:06:13;1.33;;;1.33;;
16466;SDS011;8344;47.560;9.710;2023-12-04T05:08:40;1.10;;;1.10;;
16466;SDS011;8344;47.560;9.710;2023-12-04T05:11:05;1.20;;;1.20;;
16466;SDS011;8344;47.560;9.710;2023-12-04T05:13:30;1.30;;;1.30;;
16466;SDS011;8344;47.560;9.710;2023-12-04T05:15:56;1.47;;;1.47;;
16466;SDS011;8344;47.560;9.710;2023-12-04T05:18:21;1.30;;;1.30;;
16466;SDS011;8344;47.560;9.710;2023-12-04T05:20:46;1.03;;;1.03;;
16466;SDS011;8344;47.560;9.710;2023-12-04T05:23:12;1.27;;;1.27;;
16466;SDS011;8344;47.560;9.710;2023-12-04T05:25:37;1.00;;;1.00;;
16466;SDS011;8344;47.560;9.710;2023-12-04T05:28:03;1.10;;;1.10;;
16466;SDS011;8344;47.560;9.710;2023-12-04T05:30:29;1.10;;;1.10;;
16466;SDS011;8344;47.560;9.710;2023-12-04T05:32:54;1.27;;;1.27;;
16466;SDS011;8344;47.560;9.710;2023-12-04T05:35:19;1.37;;;1.37;;
16466;SDS011;8344;47.560;9.710;2023-12-04T05:37:44;1.00;;;1.00;;
16466;SDS011;8344;47.560;9.710;2023-12-04T05:40:10;1.30;;;1.30;;
16466;SDS011;8344;47.560;9.710;2023-12-04T05:42:36;1.00;;;1.00;;
16466;SDS011;8344;47.560;9.710;2023-12-04T05:45:01;1.30;;;1.30;;
16466;SDS011;8344;47.560;9.710;2023-12-04T05:47:27;1.50;;;1.50;;
16466;SDS011;8344;47.560;9.710;2023-12-04T05:49:52;1.30;;;1.30;;
16466;SDS011;8344;47.560;9.710;2023-12-04T05:52:17;1.10;;;1.10;;
16466;SDS011;8344;47.560;9.710;2023-12-04T05:54:43;1.10;;;1.10;;
16466;SDS011;8344;47.560;9.710;2023-12-04T05:57:08;1.17;;;1.17;;
16466;SDS011;8344;47.560;9.710;2023-12-04T05:59:33;1.17;;;1.17;;
16466;SDS011;8344;47.560;9.710;2023-12-04T06:01:59;1.10;;;1.10;;
16466;SDS011;8344;47.560;9.710;2023-12-04T06:04:24;0.80;;;0.80;;
16466;SDS011;8344;47.560;9.710;2023-12-04T06:06:50;1.23;;;1.23;;
16466;SDS011;8344;47.560;9.710;2023-12-04T06:09:15;1.00;;;1.00;;
16466;SDS011;8344;47.560;9.710;2023-12-04T06:11:41;0.90;;;0.90;;
16466;SDS011;8344;47.560;9.710;2023-12-04T06:14:07;0.93;;;0.93;;
16466;SDS011;8344;47.560;9.710;2023-12-04T06:16:32;1.03;;;1.03;;
16466;SDS011;8344;47.560;9.710;2023-12-04T06:18:57;1.40;;;1.40;;
16466;SDS011;8344;47.560;9.710;2023-12-04T06:21:22;1.50;;;1.50;;
16466;SDS011;8344;47.560;9.710;2023-12-04T06:23:48;1.30;;;1.30;;
16466;SDS011;8344;47.560;9.710;2023-12-04T06:26:13;1.30;;;1.30;;
16466;SDS011;8344;47.560;9.710;2023-12-04T06:28:39;1.00;;;1.00;;
16466;SDS011;8344;47.560;9.710;2023-12-04T06:31:04;1.13;;;1.13;;
16466;SDS011;8344;47.560;9.710;2023-12-04T06:33:30;1.10;;;1.10;;
16466;SDS011;8344;47.560;9.710;2023-12-04T06:35:56;1.00;;;1.00;;
16466;SDS011;8344;47.560;9.710;2023-12-04T06:38:23;1.23;;;1.23;;
16466;SDS011;8344;47.560;9.710;2023-12-04T06:40:49;1.20;;;1.20;;
16466;SDS011;8344;47.560;9.710;2023-12-04T06:43:14;1.33;;;1.33;;
16466;SDS011;8344;47.560;9.710;2023-12-04T06:45:43;1.13;;;1.13;;
16466;SDS011;8344;47.560;9.710;2023-12-04T06:48:10;1.33;;;1.33;;
16466;SDS011;8344;47.560;9.710;2023-12-04T06:50:40;1.10;;;1.10;;
16466;SDS011;8344;47.560;9.710;2023-12-04T06:53:05;1.30;;;1.30;;
16466;SDS011;8344;47.560;9.710;2023-12-04T06:55:31;1.10;;;1.10;;
16466;SDS011;8344;47.560;9.710;2023-12-04T06:57:56;1.00;;;1.00;;
16466;SDS011;8344;47.560;9.710;2023-12-04T07:00:21;1.20;;;1.20;;
16466;SDS011;8344;47.560;9.710;2023-12-04T07:02:47;1.40;;;1.40;;
16466;SDS011;8344;47.560;9.710;2023-12-04T07:05:12;1.10;;;1.10;;
16466;SDS011;8344;47.560;9.710;2023-12-04T07:07:37;1.30;;;1.30;;
16466;SDS011;8344;47.560;9.710;2023-12-04T07:10:03;1.10;;;1.10;;
16466;SDS011;8344;47.560;9.710;2023-12-04T07:12:28;1.20;;;1.20;;
16466;SDS011;8344;47.560;9.710;2023-12-04T07:14:54;1.23;;;1.23;;
16466;SDS011;8344;47.560;9.710;2023-12-04T07:17:19;1.30;;;1.30;;
16466;SDS011;8344;47.560;9.710;2023-12-04T07:19:45;1.10;;;1.10;;
16466;SDS011;8344;47.560;9.710;2023-12-04T07:22:10;1.13;;;1.13;;
16466;SDS011;8344;47.560;9.710;2023-12-04T07:24:36;1.20;;;1.20;;
16466;SDS011;8344;47.560;9.710;2023-12-04T07:27:01;1.07;;;1.07;;
16466;SDS011;8344;47.560;9.710;2023-12-04T07:29:26;1.23;;;1.23;;
16466;SDS011;8344;47.560;9.710;2023-12-04T07:31:51;1.33;;;1.33;;
16466;SDS011;8344;47.560;9.710;2023-12-04T07:34:17;1.10;;;1.10;;
16466;SDS011;8344;47.560;9.710;2023-12-04T07:36:42;1.03;;;1.03;;
16466;SDS011;8344;47.560;9.710;2023-12-04T07:39:09;1.00;;;1.00;;
16466;SDS011;8344;47.560;9.710;2023-12-04T07:41:35;1.30;;;1.30;;
16466;SDS011;8344;47.560;9.710;2023-12-04T07:44:01;1.27;;;1.27;;
16466;SDS011;8344;47.560;9.710;2023-12-04T07:46:26;1.27;;;1.27;;
16466;SDS011;8344;47.560;9.710;2023-12-04T07:48:51;1.20;;;1.20;;
16466;SDS011;8344;47.560;9.710;2023-12-04T07:51:17;1.27;;;1.27;;
16466;SDS011;8344;47.560;9.710;2023-12-04T07:53:42;1.00;;;1.00;;
16466;SDS011;8344;47.560;9.710;2023-12-04T07:56:08;1.10;;;1.10;;
16466;SDS011;8344;47.560;9.710;2023-12-04T07:58:33;1.10;;;1.10;;
16466;SDS011;8344;47.560;9.710;2023-12-04T08:00:59;1.00;;;1.00;;
16466;SDS011;8344;47.560;9.710;2023-12-04T08:03:24;1.27;;;1.27;;
16466;SDS011;8344;47.560;9.710;2023-12-04T08:05:50;1.00;;;1.00;;
16466;SDS011;8344;47.560;9.710;2023-12-04T08:08:16;1.10;;;1.10;;
16466;SDS011;8344;47.560;9.710;2023-12-04T08:10:41;1.20;;;1.20;;
16466;SDS011;8344;47.560;9.710;2023-12-04T08:13:07;1.30;;;1.30;;
16466;SDS011;8344;47.560;9.710;2023-12-04T08:15:32;0.70;;;0.70;;
16466;SDS011;8344;47.560;9.710;2023-12-04T08:17:57;1.10;;;1.10;;
16466;SDS011;8344;47.560;9.710;2023-12-04T08:20:23;0.97;;;0.97;;
16466;SDS011;8344;47.560;9.710;2023-12-04T08:22:48;1.20;;;1.20;;
16466;SDS011;8344;47.560;9.710;2023-12-04T08:25:14;1.20;;;1.20;;
16466;SDS011;8344;47.560;9.710;2023-12-04T08:27:39;1.17;;;1.17;;
16466;SDS011;8344;47.560;9.710;2023-12-04T08:30:05;1.00;;;1.00;;
16466;SDS011;8344;47.560;9.710;2023-12-04T08:32:30;1.20;;;1.20;;
16466;SDS011;8344;47.560;9.710;2023-12-04T08:34:56;1.00;;;1.00;;
16466;SDS011;8344;47.560;9.710;2023-12-04T08:37:21;1.17;;;1.17;;
16466;SDS011;8344;47.560;9.710;2023-12-04T08:39:46;1.20;;;1.20;;
16466;SDS011;8344;47.560;9.710;2023-12-04T08:42:12;0.90;;;0.90;;
16466;SDS011;8344;47.560;9.710;2023-12-04T08:44:37;1.10;;;1.10;;
16466;SDS011;8344;47.560;9.710;2023-12-04T08:47:02;1.10;;;1.10;;
16466;SDS011;8344;47.560;9.710;2023-12-04T08:49:28;1.10;;;1.10;;
16466;SDS011;8344;47.560;9.710;2023-12-04T08:51:54;0.73;;;0.73;;
16466;SDS011;8344;47.560;9.710;2023-12-04T08:54:19;0.90;;;0.90;;
16466;SDS011;8344;47.560;9.710;2023-12-04T08:56:44;0.90;;;0.90;;
16466;SDS011;8344;47.560;9.710;2023-12-04T08:59:10;1.10;;;1.10;;
16466;SDS011;8344;47.560;9.710;2023-12-04T09:01:35;1.10;;;1.10;;
16466;SDS011;8344;47.560;9.710;2023-12-04T09:04:01;1.23;;;1.23;;
16466;SDS011;8344;47.560;9.710;2023-12-04T09:06:26;1.13;;;1.13;;
16466;SDS011;8344;47.560;9.710;2023-12-04T09:08:52;1.30;;;1.30;;
16466;SDS011;8344;47.560;9.710;2023-12-04T09:11:17;1.10;;;1.10;;
16466;SDS011;8344;47.560;9.710;2023-12-04T09:13:42;1.17;;;1.17;;
16466;SDS011;8344;47.560;9.710;2023-12-04T09:16:08;1.00;;;1.00;;
16466;SDS011;8344;47.560;9.710;2023-12-04T09:18:33;1.10;;;1.10;;
16466;SDS011;8344;47.560;9.710;2023-12-04T09:20:59;0.80;;;0.80;;
16466;SDS011;8344;47.560;9.710;2023-12-04T09:23:24;1.03;;;1.03;;
16466;SDS011;8344;47.560;9.710;2023-12-04T09:25:50;0.90;;;0.90;;
16466;SDS011;8344;47.560;9.710;2023-12-04T09:28:15;1.20;;;1.20;;
16466;SDS011;8344;47.560;9.710;2023-12-04T09:30:41;1.10;;;1.10;;
16466;SDS011;8344;47.560;9.710;2023-12-04T09:33:06;1.10;;;1.10;;
16466;SDS011;8344;47.560;9.710;2023-12-04T09:35:32;1.20;;;1.20;;
16466;SDS011;8344;47.560;9.710;2023-12-04T09:37:57;1.00;;;1.00;;
16466;SDS011;8344;47.560;9.710;2023-12-04T09:40:23;0.93;;;0.93;;
16466;SDS011;8344;47.560;9.710;2023-12-04T09:42:48;1.00;;;1.00;;
16466;SDS011;8344;47.560;9.710;2023-12-04T09:45:13;1.23;;;1.23;;
16466;SDS011;8344;47.560;9.710;2023-12-04T09:47:39;1.00;;;1.00;;
16466;SDS011;8344;47.560;9.710;2023-12-04T09:50:05;1.10;;;1.10;;
16466;SDS011;8344;47.560;9.710;2023-12-04T09:52:31;0.70;;;0.70;;
16466;SDS011;8344;47.560;9.710;2023-12-04T09:55:00;1.03;;;1.03;;
16466;SDS011;8344;47.560;9.710;2023-12-04T09:57:26;0.90;;;0.90;;
16466;SDS011;8344;47.560;9.710;2023-12-04T09:59:51;1.00;;;1.00;;
16466;SDS011;8344;47.560;9.710;2023-12-04T10:02:17;0.90;;;0.90;;
16466;SDS011;8344;47.560;9.710;2023-12-04T10:04:42;1.10;;;1.10;;
16466;SDS011;8344;47.560;9.710;2023-12-04T10:07:08;1.13;;;1.13;;
16466;SDS011;8344;47.560;9.710;2023-12-04T10:09:33;1.03;;;1.03;;
16466;SDS011;8344;47.560;9.710;2023-12-04T10:11:59;1.10;;;1.10;;
16466;SDS011;8344;47.560;9.710;2023-12-04T10:14:24;1.10;;;1.10;;
16466;SDS011;8344;47.560;9.710;2023-12-04T10:16:50;1.20;;;1.20;;
16466;SDS011;8344;47.560;9.710;2023-12-04T10:19:24;1.20;;;1.20;;
16466;SDS011;8344;47.560;9.710;2023-12-04T10:21:54;1.10;;;1.10;;
16466;SDS011;8344;47.560;9.710;2023-12-04T10:27:02;1.10;;;1.10;;
16466;SDS011;8344;47.560;9.710;2023-12-04T10:29:47;0.97;;;0.97;;
16466;SDS011;8344;47.560;9.710;2023-12-04T10:32:13;1.10;;;1.10;;
16466;SDS011;8344;47.560;9.710;2023-12-04T10:34:42;0.90;;;0.90;;
16466;SDS011;8344;47.560;9.710;2023-12-04T10:37:08;1.00;;;1.00;;
16466;SDS011;8344;47.560;9.710;2023-12-04T10:39:47;0.77;;;0.77;;
16466;SDS011;8344;47.560;9.710;2023-12-04T10:42:22;1.00;;;1.00;;
16466;SDS011;8344;47.560;9.710;2023-12-04T10:44:49;0.90;;;0.90;;
16466;SDS011;8344;47.560;9.710;2023-12-04T10:47:15;1.00;;;1.00;;
16466;SDS011;8344;47.560;9.710;2023-12-04T10:49:41;0.90;;;0.90;;
16466;SDS011;8344;47.560;9.710;2023-12-04T10:52:07;1.10;;;1.10;;
16466;SDS011;8344;47.560;9.710;2023-12-04T10:54:34;0.93;;;0.93;;
16466;SDS011;8344;47.560;9.710;2023-12-04T10:57:00;1.00;;;1.00;;
16466;SDS011;8344;47.560;9.710;2023-12-04T10:59:28;0.90;;;0.90;;
16466;SDS011;8344;47.560;9.710;2023-12-04T11:01:58;1.00;;;1.00;;
16466;SDS011;8344;47.560;9.710;2023-12-04T11:04:26;0.77;;;0.77;;
16466;SDS011;8344;47.560;9.710;2023-12-04T11:06:52;1.00;;;1.00;;
16466;SDS011;8344;47.560;9.710;2023-12-04T11:09:22;0.90;;;0.90;;
16466;SDS011;8344;47.560;9.710;2023-12-04T11:11:52;1.00;;;1.00;;
16466;SDS011;8344;47.560;9.710;2023-12-04T11:14:21;0.80;;;0.80;;
16466;SDS011;8344;47.560;9.710;2023-12-04T11:16:48;0.90;;;0.90;;
16466;SDS011;8344;47.560;9.710;2023-12-04T11:21:50;1.00;;;1.00;;
16466;SDS011;8344;47.560;9.710;2023-12-04T11:24:19;0.87;;;0.87;;
16466;SDS011;8344;47.560;9.710;2023-12-04T11:26:46;0.70;;;0.70;;
16466;SDS011;8344;47.560;9.710;2023-12-04T11:29:12;0.80;;;0.80;;
16466;SDS011;8344;47.560;9.710;2023-12-04T11:31:37;0.70;;;0.70;;
16466;SDS011;8344;47.560;9.710;2023-12-04T11:34:03;0.73;;;0.73;;
16466;SDS011;8344;47.560;9.710;2023-12-04T11:36:29;0.73;;;0.73;;
16466;SDS011;8344;47.560;9.710;2023-12-04T11:38:54;0.70;;;0.70;;
16466;SDS011;8344;47.560;9.710;2023-12-04T11:41:22;0.80;;;0.80;;
16466;SDS011;8344;47.560;9.710;2023-12-04T11:43:48;0.90;;;0.90;;
16466;SDS011;8344;47.560;9.710;2023-12-04T11:46:13;0.73;;;0.73;;
16466;SDS011;8344;47.560;9.710;2023-12-04T11:48:50;1.00;;;1.00;;
16466;SDS011;8344;47.560;9.710;2023-12-04T11:54:13;0.80;;;0.80;;
16466;SDS011;8344;47.560;9.710;2023-12-04T11:56:39;1.03;;;1.03;;
16466;SDS011;8344;47.560;9.710;2023-12-04T11:59:05;0.80;;;0.80;;
16466;SDS011;8344;47.560;9.710;2023-12-04T12:01:38;0.60;;;0.60;;
16466;SDS011;8344;47.560;9.710;2023-12-04T12:04:04;0.80;;;0.80;;
16466;SDS011;8344;47.560;9.710;2023-12-04T12:06:30;0.80;;;0.80;;
16466;SDS011;8344;47.560;9.710;2023-12-04T12:08:55;0.80;;;0.80;;
16466;SDS011;8344;47.560;9.710;2023-12-04T12:11:21;0.70;;;0.70;;
16466;SDS011;8344;47.560;9.710;2023-12-04T12:13:48;0.80;;;0.80;;
16466;SDS011;8344;47.560;9.710;2023-12-04T12:16:13;0.73;;;0.73;;
16466;SDS011;8344;47.560;9.710;2023-12-04T12:18:40;0.80;;;0.80;;
16466;SDS011;8344;47.560;9.710;2023-12-04T12:21:06;0.83;;;0.83;;
16466;SDS011;8344;47.560;9.710;2023-12-04T12:23:32;0.73;;;0.73;;
16466;SDS011;8344;47.560;9.710;2023-12-04T12:25:57;0.77;;;0.77;;
16466;SDS011;8344;47.560;9.710;2023-12-04T12:28:23;0.80;;;0.80;;
16466;SDS011;8344;47.560;9.710;2023-12-04T12:30:48;0.90;;;0.90;;
16466;SDS011;8344;47.560;9.710;2023-12-04T12:33:14;0.57;;;0.57;;
16466;SDS011;8344;47.560;9.710;2023-12-04T12:35:40;0.63;;;0.63;;
16466;SDS011;8344;47.560;9.710;2023-12-04T12:38:06;0.90;;;0.90;;
16466;SDS011;8344;47.560;9.710;2023-12-04T12:40:31;1.00;;;1.00;;
16466;SDS011;8344;47.560;9.710;2023-12-04T12:43:03;0.60;;;0.60;;
16466;SDS011;8344;47.560;9.710;2023-12-04T12:45:41;0.70;;;0.70;;
16466;SDS011;8344;47.560;9.710;2023-12-04T12:48:14;0.67;;;0.67;;
16466;SDS011;8344;47.560;9.710;2023-12-04T12:50:41;0.80;;;0.80;;
16466;SDS011;8344;47.560;9.710;2023-12-04T12:53:12;0.80;;;0.80;;
16466;SDS011;8344;47.560;9.710;2023-12-04T12:55:41;0.80;;;0.80;;
16466;SDS011;8344;47.560;9.710;2023-12-04T12:58:06;1.00;;;1.00;;
16466;SDS011;8344;47.560;9.710;2023-12-04T13:00:35;0.90;;;0.90;;
16466;SDS011;8344;47.560;9.710;2023-12-04T13:03:01;0.90;;;0.90;;
16466;SDS011;8344;47.560;9.710;2023-12-04T13:05:26;1.00;;;1.00;;
16466;SDS011;8344;47.560;9.710;2023-12-04T13:07:52;0.80;;;0.80;;
16466;SDS011;8344;47.560;9.710;2023-12-04T13:10:17;0.70;;;0.70;;
16466;SDS011;8344;47.560;9.710;2023-12-04T13:12:42;0.90;;;0.90;;
16466;SDS011;8344;47.560;9.710;2023-12-04T13:15:08;0.70;;;0.70;;
16466;SDS011;8344;47.560;9.710;2023-12-04T13:17:33;0.80;;;0.80;;
16466;SDS011;8344;47.560;9.710;2023-12-04T13:19:59;0.80;;;0.80;;
16466;SDS011;8344;47.560;9.710;2023-12-04T13:22:24;0.90;;;0.90;;
16466;SDS011;8344;47.560;9.710;2023-12-04T13:24:50;0.80;;;0.80;;
16466;SDS011;8344;47.560;9.710;2023-12-04T13:27:15;0.80;;;0.80;;
16466;SDS011;8344;47.560;9.710;2023-12-04T13:29:41;0.80;;;0.80;;
16466;SDS011;8344;47.560;9.710;2023-12-04T13:32:06;0.50;;;0.50;;
16466;SDS011;8344;47.560;9.710;2023-12-04T13:34:32;0.77;;;0.77;;
16466;SDS011;8344;47.560;9.710;2023-12-04T13:36:58;0.63;;;0.63;;
16466;SDS011;8344;47.560;9.710;2023-12-04T13:39:23;0.50;;;0.50;;
16466;SDS011;8344;47.560;9.710;2023-12-04T13:42:01;0.63;;;0.63;;
16466;SDS011;8344;47.560;9.710;2023-12-04T13:44:45;0.80;;;0.80;;
16466;SDS011;8344;47.560;9.710;2023-12-04T13:47:10;0.67;;;0.67;;
16466;SDS011;8344;47.560;9.710;2023-12-04T13:49:37;0.90;;;0.90;;
16466;SDS011;8344;47.560;9.710;2023-12-04T13:52:02;0.80;;;0.80;;
16466;SDS011;8344;47.560;9.710;2023-12-04T13:54:32;0.80;;;0.80;;
16466;SDS011;8344;47.560;9.710;2023-12-04T13:57:09;0.70;;;0.70;;
16466;SDS011;8344;47.560;9.710;2023-12-04T13:59:38;0.60;;;0.60;;
16466;SDS011;8344;47.560;9.710;2023-12-04T14:02:04;0.83;;;0.83;;
16466;SDS011;8344;47.560;9.710;2023-12-04T14:04:35;0.77;;;0.77;;
16466;SDS011;8344;47.560;9.710;2023-12-04T14:07:00;0.77;;;0.77;;
16466;SDS011;8344;47.560;9.710;2023-12-04T14:09:26;0.90;;;0.90;;
16466;SDS011;8344;47.560;9.710;2023-12-04T14:11:52;0.70;;;0.70;;
16466;SDS011;8344;47.560;9.710;2023-12-04T14:14:17;0.70;;;0.70;;
16466;SDS011;8344;47.560;9.710;2023-12-04T14:16:42;0.60;;;0.60;;
16466;SDS011;8344;47.560;9.710;2023-12-04T14:19:11;0.60;;;0.60;;
16466;SDS011;8344;47.560;9.710;2023-12-04T14:21:37;1.00;;;1.00;;
16466;SDS011;8344;47.560;9.710;2023-12-04T14:24:02;0.60;;;0.60;;
16466;SDS011;8344;47.560;9.710;2023-12-04T14:26:28;0.90;;;0.90;;
16466;SDS011;8344;47.560;9.710;2023-12-04T14:28:53;0.90;;;0.90;;
16466;SDS011;8344;47.560;9.710;2023-12-04T14:31:18;0.80;;;0.80;;
16466;SDS011;8344;47.560;9.710;2023-12-04T14:33:44;0.93;;;0.93;;
16466;SDS011;8344;47.560;9.710;2023-12-04T14:36:10;0.83;;;0.83;;
16466;SDS011;8344;47.560;9.710;2023-12-04T14:38:36;0.80;;;0.80;;
16466;SDS011;8344;47.560;9.710;2023-12-04T14:41:03;0.90;;;0.90;;
16466;SDS011;8344;47.560;9.710;2023-12-04T14:43:29;0.90;;;0.90;;
16466;SDS011;8344;47.560;9.710;2023-12-04T14:45:54;0.90;;;0.90;;
16466;SDS011;8344;47.560;9.710;2023-12-04T14:48:20;0.80;;;0.80;;
16466;SDS011;8344;47.560;9.710;2023-12-04T14:50:45;0.80;;;0.80;;
16466;SDS011;8344;47.560;9.710;2023-12-04T14:53:10;0.97;;;0.97;;
16466;SDS011;8344;47.560;9.710;2023-12-04T14:55:53;0.80;;;0.80;;
16466;SDS011;8344;47.560;9.710;2023-12-04T14:58:24;0.70;;;0.70;;
16466;SDS011;8344;47.560;9.710;2023-12-04T15:01:08;1.00;;;1.00;;